sensor_id;sensor_type;location;lat;lon;timestamp;temperature;humidity
19586;DHT22;9939;49.246;9.106;2023-02-15T00:01:30;1.90;99.90
19586;DHT22;9939;49.246;9.106;2023-02-15T00:03:57;1.90;99.90
19586;DHT22;9939;49.246;9.106;2023-02-15T00:06:23;1.90;99.90
19586;DHT22;9939;49.246;9.106;2023-02-15T00:08:50;1.90;99.90
19586;DHT22;9939;49.246;9.106;2023-02-15T00:11:18;2.00;99.90
19586;DHT22;9939;49.246;9.106;2023-02-15T00:14:04;1.90;99.90
19586;DHT22;9939;49.246;9.106;2023-02-15T00:16:31;1.90;99.90
19586;DHT22;9939;49.246;9.106;2023-02-15T00:18:58;1.90;99.90
19586;DHT22;9939;49.246;9.106;2023-02-15T00:21:28;1.90;99.90
19586;DHT22;9939;49.246;9.106;2023-02-15T00:23:59;1.90;99.90
19586;DHT22;9939;49.246;9.106;2023-02-15T00:26:26;1.80;99.90
19586;DHT22;9939;49.246;9.106;2023-02-15T00:28:53;1.80;99.90
19586;DHT22;9939;49.246;9.106;2023-02-15T00:31:21;1.80;99.90
19586;DHT22;9939;49.246;9.106;2023-02-15T00:33:48;1.70;99.90
19586;DHT22;9939;49.246;9.106;2023-02-15T00:36:15;1.80;99.90
19586;DHT22;9939;49.246;9.106;2023-02-15T00:38:42;1.80;99.90
19586;DHT22;9939;49.246;9.106;2023-02-15T00:41:09;1.90;99.90
19586;DHT22;9939;49.246;9.106;2023-02-15T00:43:37;1.90;99.90
19586;DHT22;9939;49.246;9.106;2023-02-15T00:46:04;1.90;99.90
19586;DHT22;9939;49.246;9.106;2023-02-15T00:48:31;1.90;99.90
19586;DHT22;9939;49.246;9.106;2023-02-15T00:50:59;1.80;99.90
19586;DHT22;9939;49.246;9.106;2023-02-15T00:53:26;1.70;99.90
19586;DHT22;9939;49.246;9.106;2023-02-15T00:55:53;1.80;99.90
19586;DHT22;9939;49.246;9.106;2023-02-15T00:58:21;1.80;99.90
19586;DHT22;9939;49.246;9.106;2023-02-15T01:00:49;1.90;99.90
19586;DHT22;9939;49.246;9.106;2023-02-15T01:03:16;1.90;99.90
19586;DHT22;9939;49.246;9.106;2023-02-15T01:05:44;1.80;99.90
19586;DHT22;9939;49.246;9.106;2023-02-15T01:08:11;1.80;99.90
19586;DHT22;9939;49.246;9.106;2023-02-15T01:10:38;1.80;99.90
19586;DHT22;9939;49.246;9.106;2023-02-15T01:13:04;1.90;99.90
19586;DHT22;9939;49.246;9.106;2023-02-15T01:15:35;1.80;99.90
19586;DHT22;9939;49.246;9.106;2023-02-15T01:18:03;1.90;99.90
19586;DHT22;9939;49.246;9.106;2023-02-15T01:20:33;1.70;99.90
19586;DHT22;9939;49.246;9.106;2023-02-15T01:23:00;1.70;99.90
19586;DHT22;9939;49.246;9.106;2023-02-15T01:25:27;1.60;99.90
19586;DHT22;9939;49.246;9.106;2023-02-15T01:27:54;1.70;99.90
19586;DHT22;9939;49.246;9.106;2023-02-15T01:30:21;1.70;99.90
19586;DHT22;9939;49.246;9.106;2023-02-15T01:32:48;1.70;99.90
19586;DHT22;9939;49.246;9.106;2023-02-15T01:35:14;1.60;99.90
19586;DHT22;9939;49.246;9.106;2023-02-15T01:37:41;1.50;99.90
19586;DHT22;9939;49.246;9.106;2023-02-15T01:40:11;1.60;99.90
19586;DHT22;9939;49.246;9.106;2023-02-15T01:42:39;1.50;99.90
19586;DHT22;9939;49.246;9.106;2023-02-15T01:47:54;1.50;99.90
19586;DHT22;9939;49.246;9.106;2023-02-15T01:52:54;1.60;99.90
19586;DHT22;9939;49.246;9.106;2023-02-15T01:55:24;1.60;99.90
19586;DHT22;9939;49.246;9.106;2023-02-15T01:57:51;1.60;99.90
19586;DHT22;9939;49.246;9.106;2023-02-15T02:00:18;1.50;99.90
19586;DHT22;9939;49.246;9.106;2023-02-15T02:02:47;1.50;99.90
19586;DHT22;9939;49.246;9.106;2023-02-15T02:05:14;1.40;99.90
19586;DHT22;9939;49.246;9.106;2023-02-15T02:07:43;1.50;99.90
19586;DHT22;9939;49.246;9.106;2023-02-15T02:10:13;1.50;99.90
19586;DHT22;9939;49.246;9.106;2023-02-15T02:12:40;1.40;99.90
19586;DHT22;9939;49.246;9.106;2023-02-15T02:15:08;1.50;99.90
19586;DHT22;9939;49.246;9.106;2023-02-15T02:33:31;1.30;99.90
19586;DHT22;9939;49.246;9.106;2023-02-15T02:43:47;1.30;99.90
19586;DHT22;9939;49.246;9.106;2023-02-15T02:46:17;1.40;99.90
19586;DHT22;9939;49.246;9.106;2023-02-15T02:48:47;1.40;99.90
19586;DHT22;9939;49.246;9.106;2023-02-15T02:51:14;1.30;99.90
19586;DHT22;9939;49.246;9.106;2023-02-15T02:53:51;1.40;99.90
19586;DHT22;9939;49.246;9.106;2023-02-15T02:58:57;1.20;99.90
19586;DHT22;9939;49.246;9.106;2023-02-15T03:01:27;1.10;99.90
19586;DHT22;9939;49.246;9.106;2023-02-15T03:03:57;1.20;99.90
19586;DHT22;9939;49.246;9.106;2023-02-15T03:06:32;1.20;99.90
19586;DHT22;9939;49.246;9.106;2023-02-15T03:09:05;1.20;99.90
19586;DHT22;9939;49.246;9.106;2023-02-15T03:11:34;1.20;99.90
19586;DHT22;9939;49.246;9.106;2023-02-15T03:14:01;1.10;99.90
19586;DHT22;9939;49.246;9.106;2023-02-15T03:16:30;1.20;99.90
19586;DHT22;9939;49.246;9.106;2023-02-15T03:21:31;1.10;99.90
19586;DHT22;9939;49.246;9.106;2023-02-15T03:24:33;1.10;99.90
19586;DHT22;9939;49.246;9.106;2023-02-15T03:26:52;1.00;99.90
19586;DHT22;9939;49.246;9.106;2023-02-15T03:29:23;1.00;99.90
19586;DHT22;9939;49.246;9.106;2023-02-15T03:31:53;1.10;99.90
19586;DHT22;9939;49.246;9.106;2023-02-15T03:34:21;0.90;99.90
19586;DHT22;9939;49.246;9.106;2023-02-15T03:39:31;1.00;99.90
19586;DHT22;9939;49.246;9.106;2023-02-15T03:42:16;1.00;99.90
19586;DHT22;9939;49.246;9.106;2023-02-15T03:47:21;1.00;99.90
19586;DHT22;9939;49.246;9.106;2023-02-15T03:49:55;0.90;99.90
19586;DHT22;9939;49.246;9.106;2023-02-15T03:52:24;0.90;99.90
19586;DHT22;9939;49.246;9.106;2023-02-15T03:54:52;0.80;99.90
19586;DHT22;9939;49.246;9.106;2023-02-15T03:57:20;0.70;99.90
19586;DHT22;9939;49.246;9.106;2023-02-15T04:00:09;0.70;99.90
19586;DHT22;9939;49.246;9.106;2023-02-15T04:05:38;0.70;99.90
19586;DHT22;9939;49.246;9.106;2023-02-15T04:08:05;0.80;99.90
19586;DHT22;9939;49.246;9.106;2023-02-15T04:10:32;0.70;99.90
19586;DHT22;9939;49.246;9.106;2023-02-15T04:13:31;0.70;99.90
19586;DHT22;9939;49.246;9.106;2023-02-15T04:15:58;0.70;99.90
19586;DHT22;9939;49.246;9.106;2023-02-15T04:18:34;0.80;99.90
19586;DHT22;9939;49.246;9.106;2023-02-15T04:21:20;0.70;99.90
19586;DHT22;9939;49.246;9.106;2023-02-15T04:24:06;0.60;99.90
19586;DHT22;9939;49.246;9.106;2023-02-15T04:26:52;0.60;99.90
19586;DHT22;9939;49.246;9.106;2023-02-15T04:29:19;0.60;99.90
19586;DHT22;9939;49.246;9.106;2023-02-15T04:31:46;0.50;99.90
19586;DHT22;9939;49.246;9.106;2023-02-15T04:34:14;0.50;99.90
19586;DHT22;9939;49.246;9.106;2023-02-15T04:36:41;0.60;99.90
19586;DHT22;9939;49.246;9.106;2023-02-15T04:39:08;0.50;99.90
19586;DHT22;9939;49.246;9.106;2023-02-15T04:41:35;0.70;99.90
19586;DHT22;9939;49.246;9.106;2023-02-15T04:44:02;0.60;99.90
19586;DHT22;9939;49.246;9.106;2023-02-15T04:46:29;0.60;99.90
19586;DHT22;9939;49.246;9.106;2023-02-15T04:48:56;0.60;99.90
19586;DHT22;9939;49.246;9.106;2023-02-15T04:51:23;0.60;99.90
19586;DHT22;9939;49.246;9.106;2023-02-15T04:53:50;0.60;99.90
19586;DHT22;9939;49.246;9.106;2023-02-15T04:56:19;0.50;99.90
19586;DHT22;9939;49.246;9.106;2023-02-15T04:58:46;0.70;99.90
19586;DHT22;9939;49.246;9.106;2023-02-15T05:01:13;0.60;99.90
19586;DHT22;9939;49.246;9.106;2023-02-15T05:03:40;0.60;99.90
19586;DHT22;9939;49.246;9.106;2023-02-15T05:06:07;0.60;99.90
19586;DHT22;9939;49.246;9.106;2023-02-15T05:08:34;0.60;99.90
19586;DHT22;9939;49.246;9.106;2023-02-15T05:11:00;0.50;99.90
19586;DHT22;9939;49.246;9.106;2023-02-15T05:13:27;0.50;99.90
19586;DHT22;9939;49.246;9.106;2023-02-15T05:15:54;0.50;99.90
19586;DHT22;9939;49.246;9.106;2023-02-15T05:18:21;0.40;99.90
19586;DHT22;9939;49.246;9.106;2023-02-15T05:20:48;0.40;99.90
19586;DHT22;9939;49.246;9.106;2023-02-15T05:23:15;0.40;99.90
19586;DHT22;9939;49.246;9.106;2023-02-15T05:25:49;0.50;99.90
19586;DHT22;9939;49.246;9.106;2023-02-15T05:28:35;0.40;99.90
19586;DHT22;9939;49.246;9.106;2023-02-15T05:33:30;0.30;99.90
19586;DHT22;9939;49.246;9.106;2023-02-15T05:35:57;0.40;99.90
19586;DHT22;9939;49.246;9.106;2023-02-15T05:38:24;0.50;99.90
19586;DHT22;9939;49.246;9.106;2023-02-15T05:40:51;0.30;99.90
19586;DHT22;9939;49.246;9.106;2023-02-15T05:43:18;0.30;99.90
19586;DHT22;9939;49.246;9.106;2023-02-15T05:45:48;0.30;99.90
19586;DHT22;9939;49.246;9.106;2023-02-15T05:48:16;0.30;99.90
19586;DHT22;9939;49.246;9.106;2023-02-15T05:50:43;0.20;99.90
19586;DHT22;9939;49.246;9.106;2023-02-15T05:53:10;0.20;99.90
19586;DHT22;9939;49.246;9.106;2023-02-15T05:55:38;0.30;99.90
19586;DHT22;9939;49.246;9.106;2023-02-15T05:58:05;0.30;99.90
19586;DHT22;9939;49.246;9.106;2023-02-15T06:00:32;0.30;99.90
19586;DHT22;9939;49.246;9.106;2023-02-15T06:03:01;0.40;99.90
19586;DHT22;9939;49.246;9.106;2023-02-15T06:05:28;0.40;99.90
19586;DHT22;9939;49.246;9.106;2023-02-15T06:07:55;0.40;99.90
19586;DHT22;9939;49.246;9.106;2023-02-15T06:10:22;0.40;99.90
19586;DHT22;9939;49.246;9.106;2023-02-15T06:12:48;0.40;99.90
19586;DHT22;9939;49.246;9.106;2023-02-15T06:15:15;0.40;99.90
19586;DHT22;9939;49.246;9.106;2023-02-15T06:17:42;0.50;99.90
19586;DHT22;9939;49.246;9.106;2023-02-15T06:20:09;0.40;99.90
19586;DHT22;9939;49.246;9.106;2023-02-15T06:22:36;0.30;99.90
19586;DHT22;9939;49.246;9.106;2023-02-15T06:25:03;0.30;99.90
19586;DHT22;9939;49.246;9.106;2023-02-15T06:27:30;0.30;99.90
19586;DHT22;9939;49.246;9.106;2023-02-15T06:29:57;0.20;99.90
19586;DHT22;9939;49.246;9.106;2023-02-15T06:32:23;0.30;99.90
19586;DHT22;9939;49.246;9.106;2023-02-15T06:34:50;0.20;99.90
19586;DHT22;9939;49.246;9.106;2023-02-15T06:37:17;0.20;99.90
19586;DHT22;9939;49.246;9.106;2023-02-15T06:39:44;0.20;99.90
19586;DHT22;9939;49.246;9.106;2023-02-15T06:42:11;0.30;99.90
19586;DHT22;9939;49.246;9.106;2023-02-15T06:44:38;0.20;99.90
19586;DHT22;9939;49.246;9.106;2023-02-15T06:47:05;0.30;99.90
19586;DHT22;9939;49.246;9.106;2023-02-15T06:49:31;0.30;99.90
19586;DHT22;9939;49.246;9.106;2023-02-15T06:51:58;0.20;99.90
19586;DHT22;9939;49.246;9.106;2023-02-15T06:54:25;0.20;99.90
19586;DHT22;9939;49.246;9.106;2023-02-15T06:56:52;0.30;99.90
19586;DHT22;9939;49.246;9.106;2023-02-15T06:59:19;0.30;99.90
19586;DHT22;9939;49.246;9.106;2023-02-15T07:01:46;0.30;99.90
19586;DHT22;9939;49.246;9.106;2023-02-15T07:04:13;0.20;99.90
19586;DHT22;9939;49.246;9.106;2023-02-15T07:06:39;0.30;99.90
19586;DHT22;9939;49.246;9.106;2023-02-15T07:09:06;0.40;99.90
19586;DHT22;9939;49.246;9.106;2023-02-15T07:11:33;0.30;99.90
19586;DHT22;9939;49.246;9.106;2023-02-15T07:14:19;0.40;99.90
19586;DHT22;9939;49.246;9.106;2023-02-15T07:16:45;0.30;99.90
19586;DHT22;9939;49.246;9.106;2023-02-15T07:19:12;0.40;99.90
19586;DHT22;9939;49.246;9.106;2023-02-15T07:21:39;0.30;99.90
19586;DHT22;9939;49.246;9.106;2023-02-15T07:24:06;0.40;99.90
19586;DHT22;9939;49.246;9.106;2023-02-15T07:26:33;0.40;99.90
19586;DHT22;9939;49.246;9.106;2023-02-15T07:29:00;0.50;99.90
19586;DHT22;9939;49.246;9.106;2023-02-15T07:31:26;0.50;99.90
19586;DHT22;9939;49.246;9.106;2023-02-15T07:33:53;0.50;99.90
19586;DHT22;9939;49.246;9.106;2023-02-15T07:36:20;0.50;99.90
19586;DHT22;9939;49.246;9.106;2023-02-15T07:38:47;0.40;99.90
19586;DHT22;9939;49.246;9.106;2023-02-15T07:41:14;0.40;99.90
19586;DHT22;9939;49.246;9.106;2023-02-15T07:43:42;0.50;99.90
19586;DHT22;9939;49.246;9.106;2023-02-15T07:46:10;0.60;99.90
19586;DHT22;9939;49.246;9.106;2023-02-15T07:48:38;0.50;99.90
19586;DHT22;9939;49.246;9.106;2023-02-15T07:51:06;0.60;99.90
19586;DHT22;9939;49.246;9.106;2023-02-15T07:53:33;0.50;99.90
19586;DHT22;9939;49.246;9.106;2023-02-15T07:56:00;0.50;99.90
19586;DHT22;9939;49.246;9.106;2023-02-15T07:58:28;0.70;99.90
19586;DHT22;9939;49.246;9.106;2023-02-15T08:01:14;0.80;99.90
19586;DHT22;9939;49.246;9.106;2023-02-15T08:03:41;1.00;99.90
19586;DHT22;9939;49.246;9.106;2023-02-15T08:06:08;0.90;99.90
19586;DHT22;9939;49.246;9.106;2023-02-15T08:08:36;1.00;99.90
19586;DHT22;9939;49.246;9.106;2023-02-15T08:11:05;1.00;99.90
19586;DHT22;9939;49.246;9.106;2023-02-15T08:13:52;1.00;99.90
19586;DHT22;9939;49.246;9.106;2023-02-15T08:16:44;1.00;99.90
19586;DHT22;9939;49.246;9.106;2023-02-15T08:19:10;0.90;99.90
19586;DHT22;9939;49.246;9.106;2023-02-15T08:21:38;1.00;99.90
19586;DHT22;9939;49.246;9.106;2023-02-15T08:24:06;1.00;99.90
19586;DHT22;9939;49.246;9.106;2023-02-15T08:26:34;0.90;99.90
19586;DHT22;9939;49.246;9.106;2023-02-15T08:29:01;0.90;99.90
19586;DHT22;9939;49.246;9.106;2023-02-15T08:31:28;0.80;99.90
19586;DHT22;9939;49.246;9.106;2023-02-15T08:33:56;1.00;99.90
19586;DHT22;9939;49.246;9.106;2023-02-15T08:36:24;1.00;99.90
19586;DHT22;9939;49.246;9.106;2023-02-15T08:38:51;1.10;99.90
19586;DHT22;9939;49.246;9.106;2023-02-15T08:43:46;1.10;99.90
19586;DHT22;9939;49.246;9.106;2023-02-15T08:46:13;1.20;99.90
19586;DHT22;9939;49.246;9.106;2023-02-15T08:48:41;1.10;99.90
19586;DHT22;9939;49.246;9.106;2023-02-15T08:51:12;1.30;99.90
19586;DHT22;9939;49.246;9.106;2023-02-15T08:53:40;1.00;99.90
19586;DHT22;9939;49.246;9.106;2023-02-15T08:56:08;1.10;99.90
19586;DHT22;9939;49.246;9.106;2023-02-15T08:58:35;1.30;99.90
19586;DHT22;9939;49.246;9.106;2023-02-15T09:04:03;1.20;99.90
19586;DHT22;9939;49.246;9.106;2023-02-15T09:06:31;1.30;99.90
19586;DHT22;9939;49.246;9.106;2023-02-15T09:08:58;1.40;99.90
19586;DHT22;9939;49.246;9.106;2023-02-15T09:11:27;1.20;99.90
19586;DHT22;9939;49.246;9.106;2023-02-15T09:14:01;1.20;99.90
19586;DHT22;9939;49.246;9.106;2023-02-15T09:16:29;1.30;99.90
19586;DHT22;9939;49.246;9.106;2023-02-15T09:18:57;1.40;99.90
19586;DHT22;9939;49.246;9.106;2023-02-15T09:21:24;1.30;99.90
19586;DHT22;9939;49.246;9.106;2023-02-15T09:23:55;1.30;99.90
19586;DHT22;9939;49.246;9.106;2023-02-15T09:26:23;1.30;99.90
19586;DHT22;9939;49.246;9.106;2023-02-15T09:28:54;1.20;99.90
19586;DHT22;9939;49.246;9.106;2023-02-15T09:31:25;1.40;99.90
19586;DHT22;9939;49.246;9.106;2023-02-15T09:33:52;1.60;99.90
19586;DHT22;9939;49.246;9.106;2023-02-15T09:39:00;1.60;99.90
19586;DHT22;9939;49.246;9.106;2023-02-15T09:50:08;2.00;99.90
19586;DHT22;9939;49.246;9.106;2023-02-15T09:56:57;1.90;99.90
19586;DHT22;9939;49.246;9.106;2023-02-15T10:17:19;2.20;99.90
19586;DHT22;9939;49.246;9.106;2023-02-15T10:27:45;2.50;99.90
19586;DHT22;9939;49.246;9.106;2023-02-15T10:32:47;2.90;99.90
19586;DHT22;9939;49.246;9.106;2023-02-15T10:35:23;2.60;99.90
19586;DHT22;9939;49.246;9.106;2023-02-15T10:38:16;2.30;99.90
19586;DHT22;9939;49.246;9.106;2023-02-15T10:51:02;2.60;99.90
19586;DHT22;9939;49.246;9.106;2023-02-15T11:01:27;2.90;99.90
19586;DHT22;9939;49.246;9.106;2023-02-15T11:06:33;3.10;99.90
19586;DHT22;9939;49.246;9.106;2023-02-15T11:09:03;3.30;99.90
19586;DHT22;9939;49.246;9.106;2023-02-15T11:11:35;2.50;99.90
19586;DHT22;9939;49.246;9.106;2023-02-15T11:14:10;2.70;99.90
19586;DHT22;9939;49.246;9.106;2023-02-15T11:16:41;2.40;99.90
19586;DHT22;9939;49.246;9.106;2023-02-15T11:19:19;2.60;99.90
19586;DHT22;9939;49.246;9.106;2023-02-15T11:21:49;2.80;99.90
19586;DHT22;9939;49.246;9.106;2023-02-15T11:24:18;2.80;99.90
19586;DHT22;9939;49.246;9.106;2023-02-15T11:27:10;3.00;99.90
19586;DHT22;9939;49.246;9.106;2023-02-15T11:29:48;3.50;99.90
19586;DHT22;9939;49.246;9.106;2023-02-15T11:34:52;3.80;99.90
19586;DHT22;9939;49.246;9.106;2023-02-15T11:37:20;3.40;99.90
19586;DHT22;9939;49.246;9.106;2023-02-15T11:39:51;3.40;99.90
19586;DHT22;9939;49.246;9.106;2023-02-15T11:42:21;3.80;99.90
19586;DHT22;9939;49.246;9.106;2023-02-15T11:44:56;3.80;99.90
19586;DHT22;9939;49.246;9.106;2023-02-15T11:47:25;3.30;99.90
19586;DHT22;9939;49.246;9.106;2023-02-15T11:49:51;3.30;99.90
19586;DHT22;9939;49.246;9.106;2023-02-15T11:52:18;3.70;99.90
19586;DHT22;9939;49.246;9.106;2023-02-15T11:54:46;4.10;99.90
19586;DHT22;9939;49.246;9.106;2023-02-15T11:57:15;4.30;99.90
19586;DHT22;9939;49.246;9.106;2023-02-15T11:59:49;3.70;99.90
19586;DHT22;9939;49.246;9.106;2023-02-15T12:02:18;3.90;99.90
19586;DHT22;9939;49.246;9.106;2023-02-15T12:04:51;3.70;99.90
19586;DHT22;9939;49.246;9.106;2023-02-15T12:07:20;4.20;99.90
19586;DHT22;9939;49.246;9.106;2023-02-15T12:12:34;4.60;99.90
19586;DHT22;9939;49.246;9.106;2023-02-15T12:15:03;4.50;99.90
19586;DHT22;9939;49.246;9.106;2023-02-15T12:17:31;4.90;99.90
19586;DHT22;9939;49.246;9.106;2023-02-15T12:20:03;4.70;99.90
19586;DHT22;9939;49.246;9.106;2023-02-15T12:22:34;4.50;99.90
19586;DHT22;9939;49.246;9.106;2023-02-15T12:25:49;4.60;99.90
19586;DHT22;9939;49.246;9.106;2023-02-15T12:27:50;3.90;99.90
19586;DHT22;9939;49.246;9.106;2023-02-15T12:32:48;5.10;99.90
19586;DHT22;9939;49.246;9.106;2023-02-15T12:35:27;5.20;99.90
19586;DHT22;9939;49.246;9.106;2023-02-15T12:38:19;5.40;99.90
19586;DHT22;9939;49.246;9.106;2023-02-15T12:40:42;5.50;99.90
19586;DHT22;9939;49.246;9.106;2023-02-15T12:43:25;5.30;99.90
19586;DHT22;9939;49.246;9.106;2023-02-15T12:45:52;6.30;99.90
19586;DHT22;9939;49.246;9.106;2023-02-15T12:48:19;6.00;99.90
19586;DHT22;9939;49.246;9.106;2023-02-15T12:50:50;6.30;99.90
19586;DHT22;9939;49.246;9.106;2023-02-15T12:53:30;6.50;99.90
19586;DHT22;9939;49.246;9.106;2023-02-15T12:55:58;6.80;99.90
19586;DHT22;9939;49.246;9.106;2023-02-15T12:58:29;7.40;99.90
19586;DHT22;9939;49.246;9.106;2023-02-15T13:06:19;8.40;99.90
19586;DHT22;9939;49.246;9.106;2023-02-15T13:08:48;8.80;99.90
19586;DHT22;9939;49.246;9.106;2023-02-15T13:11:20;9.10;99.90
19586;DHT22;9939;49.246;9.106;2023-02-15T13:13:53;9.80;99.90
19586;DHT22;9939;49.246;9.106;2023-02-15T13:18:56;10.40;99.90
19586;DHT22;9939;49.246;9.106;2023-02-15T13:21:25;11.60;99.90
19586;DHT22;9939;49.246;9.106;2023-02-15T13:23:55;13.60;99.90
19586;DHT22;9939;49.246;9.106;2023-02-15T13:26:25;12.90;99.90
19586;DHT22;9939;49.246;9.106;2023-02-15T13:28:54;13.80;99.90
19586;DHT22;9939;49.246;9.106;2023-02-15T13:31:26;15.00;99.90
19586;DHT22;9939;49.246;9.106;2023-02-15T13:33:56;15.80;99.90
19586;DHT22;9939;49.246;9.106;2023-02-15T13:47:06;13.90;99.90
19586;DHT22;9939;49.246;9.106;2023-02-15T13:49:45;14.80;99.90
19586;DHT22;9939;49.246;9.106;2023-02-15T13:52:21;16.40;99.90
19586;DHT22;9939;49.246;9.106;2023-02-15T13:57:32;17.10;99.90
19586;DHT22;9939;49.246;9.106;2023-02-15T14:19:34;10.30;99.90
19586;DHT22;9939;49.246;9.106;2023-02-15T14:24:39;10.10;99.90
19586;DHT22;9939;49.246;9.106;2023-02-15T14:32:14;8.90;99.90
19586;DHT22;9939;49.246;9.106;2023-02-15T14:34:48;8.40;99.90
19586;DHT22;9939;49.246;9.106;2023-02-15T14:37:19;7.80;99.90
19586;DHT22;9939;49.246;9.106;2023-02-15T14:47:44;8.70;99.90
19586;DHT22;9939;49.246;9.106;2023-02-15T14:53:18;7.70;99.90
19586;DHT22;9939;49.246;9.106;2023-02-15T14:56:04;7.90;99.90
19586;DHT22;9939;49.246;9.106;2023-02-15T14:58:31;7.40;99.90
19586;DHT22;9939;49.246;9.106;2023-02-15T15:01:08;7.40;99.90
19586;DHT22;9939;49.246;9.106;2023-02-15T15:03:36;7.40;99.90
19586;DHT22;9939;49.246;9.106;2023-02-15T15:06:03;7.40;99.90
19586;DHT22;9939;49.246;9.106;2023-02-15T15:08:36;7.30;99.90
19586;DHT22;9939;49.246;9.106;2023-02-15T15:12:05;7.30;99.90
19586;DHT22;9939;49.246;9.106;2023-02-15T15:14:13;7.40;99.90
19586;DHT22;9939;49.246;9.106;2023-02-15T15:16:57;7.20;99.90
19586;DHT22;9939;49.246;9.106;2023-02-15T15:29:57;7.00;99.90
19586;DHT22;9939;49.246;9.106;2023-02-15T15:32:24;6.90;99.90
19586;DHT22;9939;49.246;9.106;2023-02-15T15:35:05;7.10;99.90
19586;DHT22;9939;49.246;9.106;2023-02-15T15:37:49;7.00;99.90
19586;DHT22;9939;49.246;9.106;2023-02-15T15:43:04;7.10;99.90
19586;DHT22;9939;49.246;9.106;2023-02-15T15:48:17;7.40;99.90
19586;DHT22;9939;49.246;9.106;2023-02-15T15:50:46;7.60;99.90
19586;DHT22;9939;49.246;9.106;2023-02-15T15:53:18;7.40;99.90
19586;DHT22;9939;49.246;9.106;2023-02-15T15:55:47;7.30;99.90
19586;DHT22;9939;49.246;9.106;2023-02-15T15:58:15;7.20;99.90
19586;DHT22;9939;49.246;9.106;2023-02-15T16:00:43;7.10;99.90
19586;DHT22;9939;49.246;9.106;2023-02-15T16:03:22;6.80;99.90
19586;DHT22;9939;49.246;9.106;2023-02-15T16:05:50;6.70;99.90
19586;DHT22;9939;49.246;9.106;2023-02-15T16:08:37;6.80;99.90
19586;DHT22;9939;49.246;9.106;2023-02-15T16:11:13;6.60;99.90
19586;DHT22;9939;49.246;9.106;2023-02-15T16:13:42;6.40;99.90
19586;DHT22;9939;49.246;9.106;2023-02-15T16:16:11;6.10;99.90
19586;DHT22;9939;49.246;9.106;2023-02-15T16:18:45;6.10;99.90
19586;DHT22;9939;49.246;9.106;2023-02-15T16:21:23;6.00;99.90
19586;DHT22;9939;49.246;9.106;2023-02-15T16:23:56;5.80;99.90
19586;DHT22;9939;49.246;9.106;2023-02-15T16:28:52;5.50;99.90
19586;DHT22;9939;49.246;9.106;2023-02-15T16:31:19;5.40;99.90
19586;DHT22;9939;49.246;9.106;2023-02-15T16:33:51;5.20;99.90
19586;DHT22;9939;49.246;9.106;2023-02-15T16:36:22;5.10;99.90
19586;DHT22;9939;49.246;9.106;2023-02-15T16:41:20;4.90;99.90
19586;DHT22;9939;49.246;9.106;2023-02-15T16:43:48;4.80;99.90
19586;DHT22;9939;49.246;9.106;2023-02-15T16:46:23;4.60;99.90
19586;DHT22;9939;49.246;9.106;2023-02-15T16:48:52;4.40;99.90
19586;DHT22;9939;49.246;9.106;2023-02-15T16:51:20;4.30;99.90
19586;DHT22;9939;49.246;9.106;2023-02-15T16:53:48;4.20;99.90
19586;DHT22;9939;49.246;9.106;2023-02-15T16:56:15;4.10;99.90
19586;DHT22;9939;49.246;9.106;2023-02-15T16:58:44;3.90;99.90
19586;DHT22;9939;49.246;9.106;2023-02-15T17:01:12;3.70;99.90
19586;DHT22;9939;49.246;9.106;2023-02-15T17:03:41;3.60;99.90
19586;DHT22;9939;49.246;9.106;2023-02-15T17:06:21;3.50;99.90
19586;DHT22;9939;49.246;9.106;2023-02-15T17:08:49;3.40;99.90
19586;DHT22;9939;49.246;9.106;2023-02-15T17:11:16;3.40;99.90
19586;DHT22;9939;49.246;9.106;2023-02-15T17:16:30;2.90;99.90
19586;DHT22;9939;49.246;9.106;2023-02-15T17:19:00;2.70;99.90
19586;DHT22;9939;49.246;9.106;2023-02-15T17:21:30;2.60;99.90
19586;DHT22;9939;49.246;9.106;2023-02-15T17:24:01;2.50;99.90
19586;DHT22;9939;49.246;9.106;2023-02-15T17:26:31;2.40;99.90
19586;DHT22;9939;49.246;9.106;2023-02-15T17:29:00;2.20;99.90
19586;DHT22;9939;49.246;9.106;2023-02-15T17:31:31;2.20;99.90
19586;DHT22;9939;49.246;9.106;2023-02-15T17:33:59;2.00;99.90
19586;DHT22;9939;49.246;9.106;2023-02-15T17:36:27;1.90;99.90
19586;DHT22;9939;49.246;9.106;2023-02-15T17:39:04;1.90;99.90
19586;DHT22;9939;49.246;9.106;2023-02-15T17:41:35;1.80;99.90
19586;DHT22;9939;49.246;9.106;2023-02-15T17:44:03;1.70;99.90
19586;DHT22;9939;49.246;9.106;2023-02-15T17:46:34;1.70;99.90
19586;DHT22;9939;49.246;9.106;2023-02-15T17:49:02;1.60;99.90
19586;DHT22;9939;49.246;9.106;2023-02-15T17:51:30;1.70;99.90
19586;DHT22;9939;49.246;9.106;2023-02-15T17:53:57;1.60;99.90
19586;DHT22;9939;49.246;9.106;2023-02-15T17:56:43;1.60;99.90
19586;DHT22;9939;49.246;9.106;2023-02-15T17:59:10;1.60;99.90
19586;DHT22;9939;49.246;9.106;2023-02-15T18:01:42;1.70;99.90
19586;DHT22;9939;49.246;9.106;2023-02-15T18:04:29;1.50;99.90
19586;DHT22;9939;49.246;9.106;2023-02-15T18:07:15;1.40;99.90
19586;DHT22;9939;49.246;9.106;2023-02-15T18:10:05;1.30;99.90
19586;DHT22;9939;49.246;9.106;2023-02-15T18:12:56;1.30;99.90
19586;DHT22;9939;49.246;9.106;2023-02-15T18:15:23;1.20;99.90
19586;DHT22;9939;49.246;9.106;2023-02-15T18:17:51;1.20;99.90
19586;DHT22;9939;49.246;9.106;2023-02-15T18:20:26;1.20;99.90
19586;DHT22;9939;49.246;9.106;2023-02-15T18:22:54;1.10;99.90
19586;DHT22;9939;49.246;9.106;2023-02-15T18:25:21;1.10;99.90
19586;DHT22;9939;49.246;9.106;2023-02-15T18:27:51;1.00;99.90
19586;DHT22;9939;49.246;9.106;2023-02-15T18:30:22;1.00;99.90
19586;DHT22;9939;49.246;9.106;2023-02-15T18:32:49;1.10;99.90
19586;DHT22;9939;49.246;9.106;2023-02-15T18:35:18;1.20;99.90
19586;DHT22;9939;49.246;9.106;2023-02-15T18:37:45;1.40;99.90
19586;DHT22;9939;49.246;9.106;2023-02-15T18:40:16;1.30;99.90
19586;DHT22;9939;49.246;9.106;2023-02-15T18:42:43;1.20;99.90
19586;DHT22;9939;49.246;9.106;2023-02-15T18:45:15;1.10;99.90
19586;DHT22;9939;49.246;9.106;2023-02-15T18:47:43;1.10;99.90
19586;DHT22;9939;49.246;9.106;2023-02-15T18:50:11;1.20;99.90
19586;DHT22;9939;49.246;9.106;2023-02-15T18:52:38;1.00;99.90
19586;DHT22;9939;49.246;9.106;2023-02-15T18:57:41;0.70;99.90
19586;DHT22;9939;49.246;9.106;2023-02-15T19:00:17;0.90;99.90
19586;DHT22;9939;49.246;9.106;2023-02-15T19:02:44;0.80;99.90
19586;DHT22;9939;49.246;9.106;2023-02-15T19:05:11;0.70;99.90
19586;DHT22;9939;49.246;9.106;2023-02-15T19:07:38;0.70;99.90
19586;DHT22;9939;49.246;9.106;2023-02-15T19:10:06;0.60;99.90
19586;DHT22;9939;49.246;9.106;2023-02-15T19:12:33;0.70;99.90
19586;DHT22;9939;49.246;9.106;2023-02-15T19:15:00;0.60;99.90
19586;DHT22;9939;49.246;9.106;2023-02-15T19:17:27;0.50;99.90
19586;DHT22;9939;49.246;9.106;2023-02-15T19:19:54;0.50;99.90
19586;DHT22;9939;49.246;9.106;2023-02-15T19:24:51;0.50;99.90
19586;DHT22;9939;49.246;9.106;2023-02-15T19:27:24;0.40;99.90
19586;DHT22;9939;49.246;9.106;2023-02-15T19:29:51;0.40;99.90
19586;DHT22;9939;49.246;9.106;2023-02-15T19:32:19;0.40;99.90
19586;DHT22;9939;49.246;9.106;2023-02-15T19:34:46;0.30;99.90
19586;DHT22;9939;49.246;9.106;2023-02-15T19:37:23;0.40;99.90
19586;DHT22;9939;49.246;9.106;2023-02-15T19:39:51;0.30;99.90
19586;DHT22;9939;49.246;9.106;2023-02-15T19:42:20;0.20;99.90
19586;DHT22;9939;49.246;9.106;2023-02-15T19:44:48;0.20;99.90
19586;DHT22;9939;49.246;9.106;2023-02-15T19:47:16;0.20;99.90
19586;DHT22;9939;49.246;9.106;2023-02-15T19:49:43;0.20;99.90
19586;DHT22;9939;49.246;9.106;2023-02-15T19:52:20;0.20;99.90